Vremea acum in Geoagiu - Romania

Vrei sa afli care e starea vremii acum in Arad - Romania? Dorim sa iti furnizam starea vremii pentru Arad - Romania. Starea vremii Arad - Romania pentru astazi.

Vremea acum in Geoagiu

Temperatura: 3.7 °C

Este: Senin
Se simte ca: 3.7 °C
Innorat: 18 %
Precipitatii: 0 %
Presiune atmosferica: 1021 hPa
Umiditate: 65%
Vizibilitate: 10 km
Vantul bate din SSW cu 3.6 km/h

Evolutia vremii in Geoagiu pe ore

Ora: 06:00
Senin
Temperatura: 3.3°C
Sansa de precipitatii: 0%
Ora Descriere Temp Se simte Precipitatii Umiditate Vant
00:00Senin4.6°4.6°0%62%S 1.4 KM/H
01:00Senin4.2°4.2°0%64%SSE 1.1 KM/H
02:00Senin3.9°3.9°0%65%S 1.1 KM/H
03:00Senin3.7°3.7°0%65%SSW 3.6 KM/H
04:00Senin3.5°3.5°0%67%SSE 1.4 KM/H
05:00Senin3.3°3.3°0%68%S 1.4 KM/H
06:00Senin3.3°3.3°0%69%ESE 0.4 KM/H
07:00Senin4.4°4.4°0%69%N 1.4 KM/H
08:00Senin9.4°9.4°0%60%ESE 2.2 KM/H
09:00Senin12°12.6°0%53%SSE 3.2 KM/H
10:00Senin14.7°14.7°0%47%ESE 2.5 KM/H
11:00Senin16.8°16.8°0%44%ESE 3.2 KM/H
12:00Senin18.7°18.7°0%42%E 3.2 KM/H
13:00Senin20°20°0%41%ESE 4.3 KM/H
14:00Senin20.9°20.9°0%39%ESE 5.8 KM/H
15:00Senin21.5°21.5°0%39%ESE 6.5 KM/H
16:00Senin21.8°21.8°0%38%SE 5.4 KM/H
17:00Senin21.6°21.6°0%39%SE 2.9 KM/H
18:00Senin21.2°21.2°0%42%NE 0.4 KM/H
19:00Senin20.5°20.5°0%52%NE 1.1 KM/H
20:00Senin14.8°14.8°0%60%E 1.4 KM/H
21:00Senin12°12.1°0%67%SSE 1.1 KM/H
22:00Senin10.9°10.9°0%71%SSW 1.1 KM/H
23:00Senin10.1°10.1°0%74%SW 1.4 KM/H




tutorials